Terminal Aerodrome Forecast
Issued by NWS

Home | Current Version | Previous Version | Text Only | Print | Product List | Glossary On
Versions: 1 2 3 4 5 6 7 8 9 10 11 12 13
000
FTUS45 KVEF 250542
TAFDAG
TAF
KDAG 250542Z 2506/2606 25016KT P6SM SKC
     FM251200 28010KT P6SM SKC
     FM252100 28010G18KT P6SM FEW100
     FM260100 23015G24KT P6SM SKC=

USA.gov is the U.S. government's official web portal to all federal, state and local government web resources and services.